• Join FlightAware (Why Join?)
  • Login
  • US Flag 
07:40AM EDT


 

Airport Tracker/Info


-or-


 

Live Flight TrackerFlight Track Log ✈ AWE3874 ✈ 21-Dec-2013 ✈ KSRQ - KDCA

Flight Track Log - Related Links

Times and Time Zones

All times are in EST time to prevent confusion due to time zone crossing. See the AWE3874 flight status page for this flight to view local times or setup timezone preferences in your user account.

Time Position Orientation Groundspeed Altitude Reporting Facility
EST Latitude Longitude Course Direction KTS MPH feet Rate Location/Type
01:46PM 27.3833 -82.5500 North 131 151 700  Level Tampa TRACON
01:47PM 27.3267 -82.4853 135° Southeast 208 239 3,900 2,160 Climbing Miami Center
01:48PM 27.2825 -82.4925 188° South 178 205 6,500 2,220 Climbing Miami Center
01:49PM 27.8059 -82.3809 North  Level Estimated
01:49PM 27.3069 -82.5639 291° West 116 133 8,400  Level Miami Center
01:50PM 27.9085 -82.3373 North  Level Estimated
01:50PM 27.3603 -82.6389 309° West 224 258 10,200  Level Miami Center
01:51PM 28.0111 -82.2936 North  Level Estimated
01:51PM 27.4175 -82.7189 309° West 276 318 11,300  Level Miami Center
01:52PM 27.4939 -82.7931 319° Northwest 345 397 12,300 1,140 Climbing Miami Center
01:53PM 27.6044 -82.7894 North 338 389 13,600 1,200 Climbing Miami Center
01:56PM 27.8411 -82.7917 360° North 385 443 16,200 1,140 Climbing Jacksonville Center
01:57PM 27.9539 -82.7892 North 385 443 17,200 1,020 Climbing Jacksonville Center
01:58PM 28.0644 -82.7867 North 391 450 18,300 1,500 Climbing Jacksonville Center
01:59PM 28.1708 -82.7867 360° North 391 450 20,200 1,500 Climbing Jacksonville Center
02:00PM 28.2772 -82.7889 359° North 384 442 21,300 960 Climbing Jacksonville Center
02:01PM 28.3878 -82.7864 North 384 442 22,200 900 Climbing Jacksonville Center
02:02PM 28.5006 -82.7792 North 384 442 23,200 900 Climbing Jacksonville Center
02:03PM 28.6153 -82.7672 North 390 449 24,100 780 Climbing Jacksonville Center
02:04PM 28.7153 -82.7575 North 395 455 24,800 660 Climbing Jacksonville Center
02:05PM 28.8303 -82.7481 North 405 466 25,500 720 Climbing Jacksonville Center
02:06PM 28.9450 -82.7361 North 405 466 26,300 660 Climbing Jacksonville Center
02:07PM 29.0619 -82.7239 North 405 466 26,900 720 Climbing Jacksonville Center
02:08PM 29.1786 -82.7283 358° North 410 472 27,800 780 Climbing Jacksonville Center
02:09PM 29.2936 -82.7403 355° North 410 472 28,500 660 Climbing Jacksonville Center
02:10PM 29.4106 -82.7472 357° North 410 472 29,200 600 Climbing Jacksonville Center
02:11PM 29.5400 -82.7636 354° North 416 479 29,800 600 Climbing Jacksonville Center
02:12PM 29.6569 -82.7706 357° North 422 486 30,400 660 Climbing Jacksonville Center
02:13PM 29.7717 -82.7800 356° North 422 486 31,200 720 Climbing Jacksonville Center
02:14PM 29.8822 -82.7919 355° North 409 471 31,900 540 Climbing Jacksonville Center
02:15PM 29.9972 -82.7992 357° North 404 465 32,300 480 Climbing Jacksonville Center
02:16PM 30.1142 -82.8061 357° North 411 473 32,900 300 Climbing Jacksonville Center
02:17PM 30.2267 -82.7747 14° North 403 464 33,000  Climbing Jacksonville Center
02:18PM 30.3375 -82.7242 21° North 409 471 33,000  Level Jacksonville Center
02:19PM 30.4500 -82.6733 21° North 421 484 33,000  Level Jacksonville Center
02:20PM 30.5606 -82.6247 21° North 428 493 33,000  Level Jacksonville Center
02:21PM 30.6753 -82.5714 22° Northeast 428 493 33,000  Level Jacksonville Center
02:22PM 30.7922 -82.5203 21° North 433 498 33,000  Level Jacksonville Center
02:23PM 30.9067 -82.4689 21° North 433 498 33,000  Level Jacksonville Center
02:24PM 31.0236 -82.4150 22° Northeast 433 498 33,000  Level Jacksonville Center
02:25PM 31.1278 -82.3658 22° Northeast 433 498 33,000  Level Jacksonville Center
02:26PM 31.2444 -82.3119 22° Northeast 439 505 33,000  Level Jacksonville Center
02:27PM 31.3631 -82.2550 22° Northeast 446 513 33,000  Level Jacksonville Center
02:28PM 31.4819 -82.2031 20° North 452 520 33,000  Level Jacksonville Center
02:29PM 31.5986 -82.1486 22° Northeast 452 520 33,000  Level Jacksonville Center
02:30PM 31.7256 -82.0842 23° Northeast 448 516 33,000  Level Jacksonville Center
02:31PM 31.8422 -82.0317 21° North 453 521 33,000  Level Jacksonville Center
02:32PM 31.9503 -81.9817 21° North 447 514 33,000  Level Jacksonville Center
02:33PM 32.0669 -81.9267 22° Northeast 452 520 33,000  Level Jacksonville Center
02:34PM 32.1958 -81.8639 22° Northeast 445 512 33,000  Level Jacksonville Center
02:35PM 32.3142 -81.8086 22° Northeast 451 519 33,000  Level Jacksonville Center
02:36PM 32.4328 -81.7506 22° Northeast 451 519 33,000  Level Jacksonville Center
02:37PM 32.5389 -81.7000 22° Northeast 456 525 33,000  Level Jacksonville Center
02:38PM 32.6508 -81.6269 29° Northeast 456 525 33,000  Level Jacksonville Center
02:39PM 32.7689 -81.5361 33° Northeast 456 525 33,000  Level Jacksonville Center
02:40PM 32.8744 -81.4531 33° Northeast 456 525 33,000  Level Jacksonville Center
02:41PM 32.9800 -81.3697 34° Northeast 456 525 33,000  Level Jacksonville Center
02:42PM 33.0875 -81.2861 33° Northeast 456 525 33,000  Level Jacksonville Center
02:43PM 33.1928 -81.2047 33° Northeast 456 525 33,000  Level Jacksonville Center
02:44PM 33.2981 -81.1206 34° Northeast 456 525 33,000  Level Jacksonville Center
02:45PM 33.4033 -81.0364 34° Northeast 456 525 33,000  Level Jacksonville Center
02:46PM 33.5106 -80.9519 33° Northeast 456 525 33,000  Level Jacksonville Center
02:47PM 33.6136 -80.8725 33° Northeast 451 519 33,000  Level Jacksonville Center
02:48PM 33.7186 -80.7850 35° Northeast 451 519 33,000  Level Jacksonville Center
02:49PM 33.8217 -80.7028 34° Northeast 451 519 33,000  Level Jacksonville Center
02:50PM 33.9244 -80.6175 35° Northeast 451 519 33,000  Level Jacksonville Center
02:51PM 34.0314 -80.5344 33° Northeast 451 519 33,000  Level Jacksonville Center
02:52PM 34.1342 -80.4514 34° Northeast 446 513 33,000  Level Jacksonville Center
02:53PM 34.2408 -80.3656 34° Northeast 451 519 33,000  Level Jacksonville Center
02:54PM 34.4119 -80.2211 35° Northeast 450 518 33,000  Level Washington Center
02:56PM 34.5153 -80.1339 35° Northeast 450 518 33,000  Level Washington Center
02:56PM 34.6317 -80.0394 34° Northeast 456 525 33,000  Level Washington Center
02:57PM 34.7283 -79.9639 33° Northeast 456 525 33,000  Level Washington Center
02:58PM 34.8314 -79.8783 34° Northeast 456 525 33,000  Level Washington Center
02:59PM 34.9367 -79.7925 34° Northeast 456 525 33,000  Level Washington Center
03:00PM 35.0400 -79.7042 35° Northeast 456 525 33,000  Level Washington Center
03:02PM 35.1433 -79.6153 35° Northeast 456 525 33,000  Level Washington Center
03:02PM 35.2383 -79.5158 41° Northeast 456 525 33,000  Level Washington Center
03:03PM 35.3314 -79.4108 43° Northeast 456 525 33,000  Level Washington Center
03:04PM 35.4353 -79.2936 43° Northeast 456 525 33,000  Level Washington Center
03:05PM 35.5283 -79.1881 43° Northeast 456 525 33,000  Level Washington Center
03:06PM 35.6103 -79.0922 44° Northeast 456 525 33,000  Level Washington Center
03:07PM 35.7053 -78.9864 42° Northeast 456 525 33,000  Level Washington Center
03:08PM 35.8067 -78.8678 43° Northeast 456 525 33,000  Level Washington Center
03:09PM 35.9011 -78.7639 42° Northeast 456 525 33,000  Level Washington Center
03:10PM 36.0039 -78.6731 36° Northeast 451 519 33,000 -480 Level Washington Center
03:11PM 36.1061 -78.5844 35° Northeast 451 519 32,100 -1,500 Descending Washington Center
03:12PM 36.2064 -78.4931 36° Northeast 446 513 30,000 -2,160 Descending Washington Center
03:13PM 36.3067 -78.4067 35° Northeast 441 507 27,900 -1,560 Descending Washington Center
03:14PM 36.4025 -78.3222 35° Northeast 441 507 27,000 -480 Descending Washington Center
03:15PM 36.4983 -78.2378 35° Northeast 435 501 27,000  Level Washington Center
03:16PM 36.5983 -78.1481 36° Northeast 435 501 27,000  Level Washington Center
03:17PM 36.6833 -78.0681 37° Northeast 435 501 27,000  Level Washington Center
03:18PM 36.7811 -77.9803 36° Northeast 435 501 27,000  Level Washington Center
03:19PM 36.8767 -77.8950 36° Northeast 435 501 27,000  Level Washington Center
03:20PM 36.9744 -77.8042 37° Northeast 430 495 27,000 -240 Level Washington Center
03:21PM 37.0719 -77.7158 36° Northeast 430 495 26,600 -780 Descending Washington Center
03:22PM 37.1694 -77.6275 36° Northeast 430 495 25,500 -1,140 Descending Washington Center
03:23PM 37.2647 -77.5411 36° Northeast 430 495 24,400 -1,380 Descending Washington Center
03:24PM 37.3600 -77.4547 36° Northeast 430 495 22,800 -1,200 Descending Washington Center
03:25PM 37.4553 -77.3656 37° Northeast 430 495 22,000 -420 Descending Washington Center
03:26PM 37.5519 -77.3075 25° Northeast 410 472 22,000 -660 Level Washington Center
03:27PM 37.6586 -77.2864 North 388 447 20,700 -1,440 Descending Washington Center
03:28PM 37.7633 -77.2678 North 382 440 19,200 -1,680 Descending Washington Center
03:29PM 37.8658 -77.2436 11° North 372 428 17,400 -1,920 Descending Washington Center
03:30PM 37.9639 -77.2247 North 367 422 15,500 -1,980 Descending Washington Center
03:31PM 38.0728 -77.2061 North 362 417 13,400 -1,980 Descending Washington Center
03:32PM 38.1647 -77.1842 11° North 350 403 11,600 -1,620 Descending Washington Center
03:33PM 38.2483 -77.1622 12° North 339 390 10,300 -840 Descending Washington Center
03:34PM 38.3444 -77.1483 North 325 374 10,000 -180 Descending Washington Center
03:35PM 38.4344 -77.1264 11° North 319 367 10,000  Level Washington Center
03:36PM 38.5244 -77.1069 10° North 319 367 10,000  Level Washington Center
03:37PM 38.6122 -77.0903 North 319 367 10,000 -780 Level Washington Center
03:38PM 38.6958 -77.0706 10° North 312 359 8,500 -1,860 Descending Washington Center
03:39PM 38.7750 -77.0747 358° North 302 348 6,400 -1,920 Descending Washington Center
03:40PM 38.8389 -77.1267 328° Northwest 264 304 4,700 -1,320 Descending Washington Center
03:42PM 38.9000 -77.2000 317° Northwest 201 231 3,300 -960 Descending Potomac TRACON
03:43PM 38.9500 -77.1833 15° North 209 241 2,500 -540 Descending Potomac TRACON
03:44PM 38.9333 -77.1167 108° East 182 209 2,300 -780 Descending Potomac TRACON
03:45PM 38.9000 -77.0833 142° Southeast 163 188 1,100 -960 Descending Potomac TRACON
03:46PM 38.8833 -77.0500 123° Southeast 138 159 400 -660 Descending Potomac TRACON